Nearby METAR Reports

 

EGSS - Stansted Airport, United Kingdom
Distance from station: NW 15mi, 24km
Updated: 26/04/2018 00:50
Clear
Clear
 Wind from WSW
Wind: WSW 12 mph , 19 km/h
Temperature: 7°C
Wind Chill: 4°C
Dew Point: 5°C
Humidity: 87%
Barometer: 1013 hPa
Clouds: Clear
Visibility: 6 miles , 10 km
2018/04/25 23:50 EGSS 252350Z AUTO 25010KT 9999 NCD 07/05 Q1013
EGMC - Southend-On-Sea, United Kingdom
Distance from station: SE 15mi, 25km
Updated: 26/04/2018 00:20
Clear
Clear
 Wind from W
Wind: W 15 mph , 24 km/h
Temperature: 8°C
Wind Chill: 4°C
Dew Point: 3°C
Humidity: 71%
Barometer: 1013 hPa
Summary: Clear
Visibility: greater than 7 miles , 10 km
2018/04/25 23:20 EGMC 252320Z 26013KT CAVOK 08/03 Q1013
 
EGLC - London City Airp, United Kingdom
Distance from station: SW 24mi, 39km
Updated: 26/04/2018 00:50
Clear
Clear
 Wind from WSW
Wind: WSW 14 mph , 22 km/h
Temperature: 9°C
Wind Chill: 6°C
Dew Point: 5°C
Humidity: 76%
Barometer: 1014 hPa
Clouds: Clear
Visibility: 6 miles , 10 km
2018/04/25 23:50 EGLC 252350Z AUTO 25012KT 9999 NCD 09/05 Q1014
EGUW - Wattisham Raf, United Kingdom
Distance from station: NE 34mi, 54km
Updated: 25/04/2018 23:50
NOT Current
Partly cloudy
Partly cloudy
 Wind from WSW
Wind: WSW 10 mph , 17 km/h
Temperature: 6°C
Wind Chill: 3°C
Dew Point: 5°C
Humidity: 93%
Barometer: 1012 hPa
Clouds: Partly cloudy
Visibility: 6 miles , 10 km
Cloud details: Few Clouds 1219 m
Partly cloudy 6706 m
2018/04/25 22:50 EGUW 252250Z 25009KT 9999 FEW040 SCT220 06/05 Q1012 BLU NOSIG
 
EGGW - Luton Airport, United Kingdom
Distance from station: WNW 37mi, 59km
Updated: 26/04/2018 00:50
Clear
Clear
 Wind from WSW
Wind: WSW 13 mph , 20 km/h
Temperature: 7°C
Wind Chill: 4°C
Dew Point: 5°C
Humidity: 87%
Barometer: 1013 hPa
Clouds: Clear
Visibility: 6 miles , 10 km
2018/04/25 23:50 EGGW 252350Z AUTO 24011KT 9999 NCD 07/05 Q1013
EGWU - Northolt Raf, United Kingdom
Distance from station: WSW 40mi, 64km
Updated: 26/04/2018 00:50
Few Clouds
Few Clouds
 Wind from W
Wind: W 9 mph , 15 km/h
Temperature: 8°C
Wind Chill: 5°C
Dew Point: 5°C
Humidity: 82%
Barometer: 1014 hPa
Clouds: Few Clouds
Visibility: 6 miles , 10 km
Cloud details: Few Clouds 4877 m
2018/04/25 23:50 EGWU 252350Z AUTO 26008KT 9999 // FEW160/// 08/05 Q1014